Time;durP1;ratioP1;P1;durP2;ratioP2;P2;SDS_P1;SDS_P2;PMS_P1;PMS_P2;Temp;Humidity;BMP_temperature;BMP_pressure;BME280_temperature;BME280_humidity;BME280_pressure;Samples;Min_cycle;Max_cycle;Signal;HPM_P1;HPM_P2
2023/11/02 00:00:35;;;;;;;2.93;1.03;;;;;;;;;;5022377;28;20406;-63
2023/11/02 00:03:07;;;;;;;4.27;1.00;;;;;;;;;;5042170;28;20424;-64
2023/11/02 00:05:48;;;;;;;3.63;1.15;;;;;;;;;;5045801;28;20068;-64
2023/11/02 00:08:13;;;;;;;6.53;1.10;;;;;;;;;;5042245;28;20030;-64
2023/11/02 00:10:39;;;;;;;6.70;1.50;;;;;;;;;;5035133;28;20418;-65
2023/11/02 00:13:05;;;;;;;5.00;1.23;;;;;;;;;;5042288;28;20114;-66
2023/11/02 00:15:30;;;;;;;4.17;1.27;;;;;;;;;;5040903;28;20211;-65
2023/11/02 00:17:58;;;;;;;3.43;1.00;;;;;;;;;;5043517;28;20025;-65
2023/11/02 00:20:31;;;;;;;3.10;1.00;;;;;;;;;;5038959;28;20107;-64
2023/11/02 00:22:57;;;;;;;4.97;1.10;;;;;;;;;;5042328;28;20017;-65
2023/11/02 00:25:28;;;;;;;6.97;1.10;;;;;;;;;;5041569;28;20466;-65
2023/11/02 00:27:53;;;;;;;4.82;1.10;;;;;;;;;;5040154;28;20015;-65
2023/11/02 00:30:18;;;;;;;7.53;1.20;;;;;;;;;;5039320;28;20029;-64
2023/11/02 00:32:44;;;;;;;4.60;1.40;;;;;;;;;;5041969;28;20039;-68
2023/11/02 00:35:10;;;;;;;5.27;1.13;;;;;;;;;;5039015;28;20058;-68
2023/11/02 00:37:38;;;;;;;6.60;1.20;;;;;;;;;;5041277;28;20017;-68
2023/11/02 00:40:05;;;;;;;5.97;1.10;;;;;;;;;;5039084;28;20462;-68
2023/11/02 00:42:30;;;;;;;7.27;1.43;;;;;;;;;;5038374;28;20029;-67
2023/11/02 00:44:55;;;;;;;3.70;1.13;;;;;;;;;;5037498;28;20687;-67
2023/11/02 00:47:21;;;;;;;4.53;1.00;;;;;;;;;;5037134;28;20025;-68
2023/11/02 00:49:46;;;;;;;4.27;1.27;;;;;;;;;;5042382;28;20063;-67
2023/11/02 00:52:14;;;;;;;3.33;1.20;;;;;;;;;;5040085;28;20033;-68
2023/11/02 00:54:58;;;;;;;5.80;1.13;;;;;;;;;;5035239;28;20028;-67
2023/11/02 00:57:26;;;;;;;2.63;1.07;;;;;;;;;;5035933;28;20561;-67
2023/11/02 00:59:51;;;;;;;3.60;1.00;;;;;;;;;;5036362;28;20017;-67
2023/11/02 01:02:18;;;;;;;4.47;1.40;;;;;;;;;;5042446;28;20138;-67
2023/11/02 01:04:43;;;;;;;2.40;1.00;;;;;;;;;;5023051;28;20438;-67
2023/11/02 01:07:11;;;;;;;4.17;1.10;;;;;;;;;;5019259;28;20058;-67
2023/11/02 01:09:40;;;;;;;4.17;1.50;;;;;;;;;;5023072;28;20021;-68
2023/11/02 01:12:05;;;;;;;4.00;1.00;;;;;;;;;;5021939;28;20029;-67
2023/11/02 01:14:51;;;;;;;5.43;1.00;;;;;;;;;;5012591;28;20549;-67
2023/11/02 01:17:28;;;;;;;4.63;1.00;;;;;;;;;;5008208;28;20290;-66
2023/11/02 01:19:57;;;;;;;4.17;1.20;;;;;;;;;;5017645;28;20595;-66
2023/11/02 01:22:42;;;;;;;3.70;1.00;;;;;;;;;;5019098;28;20592;-66
2023/11/02 01:25:11;;;;;;;4.70;1.30;;;;;;;;;;5017791;28;20545;-66
2023/11/02 01:27:37;;;;;;;3.83;1.00;;;;;;;;;;5020302;28;20039;-66
2023/11/02 01:30:06;;;;;;;2.80;0.97;;;;;;;;;;5015263;28;20093;-67
2023/11/02 01:32:32;;;;;;;4.17;1.10;;;;;;;;;;5007230;28;20478;-66
2023/11/02 01:34:57;;;;;;;3.63;1.20;;;;;;;;;;5015136;28;20182;-67
2023/11/02 01:37:23;;;;;;;6.87;1.30;;;;;;;;;;5024923;28;20342;-67
2023/11/02 01:39:59;;;;;;;4.00;1.00;;;;;;;;;;5022653;28;20465;-67
2023/11/02 01:42:31;;;;;;;4.17;1.20;;;;;;;;;;5016909;28;20133;-65
2023/11/02 01:44:58;;;;;;;4.60;1.20;;;;;;;;;;5010088;28;20033;-64
2023/11/02 01:47:38;;;;;;;3.13;1.00;;;;;;;;;;5017421;28;20623;-64
2023/11/02 01:50:06;;;;;;;3.67;1.10;;;;;;;;;;5012615;28;20113;-64
2023/11/02 01:52:41;;;;;;;4.30;1.13;;;;;;;;;;5019890;28;20017;-65
2023/11/02 01:55:25;;;;;;;4.73;1.10;;;;;;;;;;5018336;28;20109;-63
2023/11/02 01:58:16;;;;;;;2.83;1.33;;;;;;;;;;5020588;28;20493;-63
2023/11/02 02:00:49;;;;;;;3.67;1.10;;;;;;;;;;5005690;28;20474;-64
2023/11/02 02:03:26;;;;;;;5.17;1.43;;;;;;;;;;5014674;28;20072;-64
2023/11/02 02:05:58;;;;;;;2.40;1.00;;;;;;;;;;5017416;28;20025;-64
2023/11/02 02:08:23;;;;;;;;;;;;;;;;;;5021145;28;20424;-63
2023/11/02 02:10:51;;;;;;;8.40;1.23;;;;;;;;;;5023911;28;20341;-64
2023/11/02 02:13:38;;;;;;;5.03;1.20;;;;;;;;;;5022641;28;20127;-65
2023/11/02 02:16:03;;;;;;;2.90;1.00;;;;;;;;;;5009936;28;20014;-65
2023/11/02 02:18:30;;;;;;;3.87;1.10;;;;;;;;;;5010264;28;20028;-63
2023/11/02 02:20:58;;;;;;;3.27;1.07;;;;;;;;;;5005262;28;20021;-65
2023/11/02 02:23:47;;;;;;;2.90;0.90;;;;;;;;;;5025048;28;20113;-63
2023/11/02 02:26:16;;;;;;;4.57;1.10;;;;;;;;;;5020370;28;20030;-65
2023/11/02 02:29:00;;;;;;;3.73;0.90;;;;;;;;;;5012498;28;20022;-64
2023/11/02 02:31:37;;;;;;;3.23;1.10;;;;;;;;;;5014934;28;20490;-65
2023/11/02 02:34:04;;;;;;;4.03;1.13;;;;;;;;;;5011485;28;20094;-64
2023/11/02 02:36:29;;;;;;;2.30;1.00;;;;;;;;;;5021811;28;20017;-62
2023/11/02 02:39:04;;;;;;;2.80;1.00;;;;;;;;;;5023770;28;20449;-64
2023/11/02 02:41:31;;;;;;;4.27;1.10;;;;;;;;;;5020405;28;20100;-63
2023/11/02 02:43:58;;;;;;;5.57;1.23;;;;;;;;;;5015949;28;20120;-64
2023/11/02 02:46:23;;;;;;;3.60;1.00;;;;;;;;;;5018200;28;20041;-64
2023/11/02 02:48:49;;;;;;;3.97;1.07;;;;;;;;;;5025007;28;20021;-67
2023/11/02 02:51:18;;;;;;;4.00;0.90;;;;;;;;;;5016607;28;20313;-64
2023/11/02 02:53:46;;;;;;;3.70;0.90;;;;;;;;;;5020798;28;20116;-66
2023/11/02 02:56:12;;;;;;;3.07;0.87;;;;;;;;;;5017081;28;20026;-66
2023/11/02 02:58:43;;;;;;;4.23;0.90;;;;;;;;;;5020932;28;20243;-66
2023/11/02 03:01:09;;;;;;;2.67;0.80;;;;;;;;;;5022507;28;20009;-65
2023/11/02 03:03:35;;;;;;;2.30;0.87;;;;;;;;;;5035433;28;20077;-65
2023/11/02 03:06:00;;;;;;;6.83;1.37;;;;;;;;;;5043621;28;20029;-66
2023/11/02 03:08:27;;;;;;;2.00;0.80;;;;;;;;;;5040173;28;20060;-65
2023/11/02 03:10:53;;;;;;;2.13;0.80;;;;;;;;;;5042183;28;20029;-65
2023/11/02 03:13:19;;;;;;;1.57;0.70;;;;;;;;;;5040677;28;20060;-65
2023/11/02 03:15:45;;;;;;;3.27;0.70;;;;;;;;;;5039708;28;20405;-66
2023/11/02 03:18:14;;;;;;;2.83;0.73;;;;;;;;;;5040912;28;20376;-65
2023/11/02 03:20:42;;;;;;;2.47;0.73;;;;;;;;;;5045612;28;20488;-66
2023/11/02 03:23:40;;;;;;;2.03;0.70;;;;;;;;;;5043187;28;20021;-66
2023/11/02 03:26:14;;;;;;;2.03;0.80;;;;;;;;;;4994705;28;20524;-65
2023/11/02 03:28:42;;;;;;;1.87;0.87;;;;;;;;;;5041795;28;20064;-65
2023/11/02 03:31:24;;;;;;;3.07;0.90;;;;;;;;;;5036959;28;20033;-65
2023/11/02 03:34:10;;;;;;;4.15;0.73;;;;;;;;;;5035987;28;20021;-65
2023/11/02 03:36:42;;;;;;;2.10;0.63;;;;;;;;;;5039296;28;20486;-66
2023/11/02 03:39:16;;;;;;;2.45;0.90;;;;;;;;;;5040985;28;20056;-66
2023/11/02 03:41:52;;;;;;;1.70;0.77;;;;;;;;;;5041569;28;20087;-66
2023/11/02 03:44:20;;;;;;;2.87;0.80;;;;;;;;;;5039144;28;20049;-65
2023/11/02 03:47:05;;;;;;;3.00;0.87;;;;;;;;;;5038249;28;20048;-65
2023/11/02 03:49:35;;;;;;;2.30;0.87;;;;;;;;;;5030748;28;20057;-65
2023/11/02 03:52:13;;;;;;;4.57;1.30;;;;;;;;;;5037691;28;20477;-65
2023/11/02 03:54:44;;;;;;;3.27;0.90;;;;;;;;;;5035539;28;20017;-65
2023/11/02 03:57:29;;;;;;;3.22;1.25;;;;;;;;;;5040944;28;20032;-65
2023/11/02 04:00:13;;;;;;;4.37;1.50;;;;;;;;;;5038947;28;20476;-65
2023/11/02 04:02:43;;;;;;;2.30;0.83;;;;;;;;;;5037951;28;20454;-65
2023/11/02 04:05:17;;;;;;;1.83;0.90;;;;;;;;;;5036059;28;20388;-65
2023/11/02 04:07:46;;;;;;;5.10;1.00;;;;;;;;;;5038206;28;20021;-66
2023/11/02 04:10:14;;;;;;;3.27;0.90;;;;;;;;;;5037246;28;20673;-65
2023/11/02 04:12:49;;;;;;;4.37;1.03;;;;;;;;;;5039684;28;20044;-65
2023/11/02 04:15:15;;;;;;;2.63;0.97;;;;;;;;;;5035034;28;20024;-64
2023/11/02 04:17:40;;;;;;;2.67;1.00;;;;;;;;;;5039434;28;20485;-64
2023/11/02 04:20:06;;;;;;;5.20;1.13;;;;;;;;;;5039119;28;20074;-64
2023/11/02 04:22:31;;;;;;;2.93;1.00;;;;;;;;;;5034985;28;20018;-66
2023/11/02 04:24:56;;;;;;;8.37;1.00;;;;;;;;;;5036246;28;20021;-65
2023/11/02 04:27:22;;;;;;;3.17;1.00;;;;;;;;;;5039331;28;20105;-65
2023/11/02 04:29:47;;;;;;;2.90;1.00;;;;;;;;;;5033934;28;20103;-65
2023/11/02 04:32:12;;;;;;;2.80;1.07;;;;;;;;;;5036985;28;20021;-65
2023/11/02 04:34:38;;;;;;;3.27;1.00;;;;;;;;;;5038511;28;20420;-65
2023/11/02 04:37:11;;;;;;;2.63;0.90;;;;;;;;;;5039105;28;20044;-65
2023/11/02 04:39:36;;;;;;;2.70;0.90;;;;;;;;;;5038444;28;20029;-66
2023/11/02 04:42:01;;;;;;;7.17;1.30;;;;;;;;;;5038604;28;20028;-65
2023/11/02 04:44:26;;;;;;;2.17;0.90;;;;;;;;;;5032515;28;20531;-65
2023/11/02 04:46:52;;;;;;;2.80;0.97;;;;;;;;;;5038109;28;20026;-64
2023/11/02 04:49:17;;;;;;;2.30;1.17;;;;;;;;;;5038387;28;20029;-65
2023/11/02 04:52:02;;;;;;;1.93;0.90;;;;;;;;;;5036937;28;20033;-64
2023/11/02 04:54:28;;;;;;;4.67;1.10;;;;;;;;;;5036094;28;20029;-64
2023/11/02 04:56:53;;;;;;;5.33;1.10;;;;;;;;;;5040136;28;20021;-65
2023/11/02 04:59:19;;;;;;;4.33;0.90;;;;;;;;;;5038355;28;20074;-66
2023/11/02 05:01:44;;;;;;;2.20;0.90;;;;;;;;;;5039348;28;20035;-65
2023/11/02 05:04:09;;;;;;;4.07;1.00;;;;;;;;;;5038162;28;20053;-65
2023/11/02 05:06:35;;;;;;;1.97;0.90;;;;;;;;;;5041662;28;20441;-64
2023/11/02 05:09:02;;;;;;;2.70;1.00;;;;;;;;;;5038714;28;20381;-66
2023/11/02 05:11:27;;;;;;;6.20;1.20;;;;;;;;;;5037318;28;20098;-64
2023/11/02 05:13:52;;;;;;;3.40;1.20;;;;;;;;;;5039275;28;20560;-65
2023/11/02 05:16:18;;;;;;;1.50;0.67;;;;;;;;;;5032823;28;20025;-66
2023/11/02 05:18:43;;;;;;;1.43;0.80;;;;;;;;;;5036414;28;20017;-65
2023/11/02 05:21:09;;;;;;;4.33;0.90;;;;;;;;;;5035296;28;20025;-65
2023/11/02 05:23:34;;;;;;;2.13;1.00;;;;;;;;;;5036093;28;20035;-65
2023/11/02 05:26:01;;;;;;;3.40;0.80;;;;;;;;;;5037572;28;20021;-64
2023/11/02 05:28:26;;;;;;;1.43;0.80;;;;;;;;;;5039134;28;20036;-65
2023/11/02 05:30:52;;;;;;;2.10;0.93;;;;;;;;;;5032867;28;20477;-65
2023/11/02 05:33:17;;;;;;;3.50;0.87;;;;;;;;;;5038765;28;20025;-65
2023/11/02 05:35:42;;;;;;;0.90;0.67;;;;;;;;;;5037600;28;20024;-66
2023/11/02 05:38:07;;;;;;;5.50;0.93;;;;;;;;;;5036442;28;20024;-66
2023/11/02 05:40:33;;;;;;;2.87;0.90;;;;;;;;;;5033524;28;20017;-64
2023/11/02 05:42:58;;;;;;;3.33;1.20;;;;;;;;;;5035247;28;20107;-65
2023/11/02 05:45:23;;;;;;;1.23;0.63;;;;;;;;;;5038523;28;20494;-67
2023/11/02 05:47:48;;;;;;;2.90;1.00;;;;;;;;;;5034307;28;20032;-65
2023/11/02 05:50:14;;;;;;;2.97;0.93;;;;;;;;;;5034715;28;20114;-65
2023/11/02 05:52:39;;;;;;;4.10;0.80;;;;;;;;;;5033243;28;20029;-64
2023/11/02 05:55:05;;;;;;;3.67;0.70;;;;;;;;;;5041051;28;20021;-64
2023/11/02 05:57:30;;;;;;;2.77;0.93;;;;;;;;;;5037224;28;20098;-65
2023/11/02 05:59:57;;;;;;;3.57;0.97;;;;;;;;;;5031171;28;20064;-66
2023/11/02 06:02:22;;;;;;;2.73;0.90;;;;;;;;;;5034942;28;20439;-65
2023/11/02 06:04:48;;;;;;;2.57;1.20;;;;;;;;;;5038841;28;20131;-64
2023/11/02 06:07:13;;;;;;;1.10;0.57;;;;;;;;;;5039562;28;20175;-62
2023/11/02 06:09:39;;;;;;;2.00;0.60;;;;;;;;;;5032255;28;20356;-65
2023/11/02 06:12:05;;;;;;;4.93;0.90;;;;;;;;;;5040082;28;20647;-66
2023/11/02 06:14:30;;;;;;;3.23;0.70;;;;;;;;;;5041967;28;20028;-65
2023/11/02 06:16:56;;;;;;;1.83;0.70;;;;;;;;;;5039349;28;20587;-65
2023/11/02 06:19:21;;;;;;;3.80;1.30;;;;;;;;;;5036750;28;20308;-65
2023/11/02 06:21:48;;;;;;;3.70;0.80;;;;;;;;;;5036260;28;20094;-65
2023/11/02 06:24:13;;;;;;;2.47;0.67;;;;;;;;;;5032965;28;20060;-66
2023/11/02 06:26:39;;;;;;;1.03;0.50;;;;;;;;;;5037161;28;20025;-65
2023/11/02 06:29:04;;;;;;;3.57;0.70;;;;;;;;;;5036917;28;20018;-66
2023/11/02 06:31:29;;;;;;;2.83;0.80;;;;;;;;;;5037173;28;20033;-65
2023/11/02 06:33:55;;;;;;;7.17;0.90;;;;;;;;;;5036070;28;20021;-66
2023/11/02 06:36:20;;;;;;;1.67;0.50;;;;;;;;;;5035415;28;20021;-68
2023/11/02 06:38:45;;;;;;;0.97;0.60;;;;;;;;;;5031916;28;20087;-66
2023/11/02 06:41:10;;;;;;;3.23;0.80;;;;;;;;;;5035646;28;20386;-66
2023/11/02 06:43:40;;;;;;;4.93;0.90;;;;;;;;;;5034356;28;20021;-65
2023/11/02 06:46:06;;;;;;;2.00;0.60;;;;;;;;;;5036260;28;20032;-66
2023/11/02 06:48:32;;;;;;;1.70;0.60;;;;;;;;;;5035309;28;20177;-66
2023/11/02 06:50:57;;;;;;;3.53;0.80;;;;;;;;;;5034837;28;20025;-67
2023/11/02 06:53:22;;;;;;;2.60;0.60;;;;;;;;;;5033178;28;20100;-68
2023/11/02 06:55:48;;;;;;;1.93;0.53;;;;;;;;;;5035458;28;20045;-67
2023/11/02 06:58:13;;;;;;;4.63;0.90;;;;;;;;;;5036312;28;20402;-67
2023/11/02 07:00:38;;;;;;;5.37;0.87;;;;;;;;;;5031634;28;20032;-68
2023/11/02 07:03:04;;;;;;;3.60;1.17;;;;;;;;;;5031884;28;20049;-67
2023/11/02 07:05:29;;;;;;;2.37;0.93;;;;;;;;;;5037458;28;20025;-67
2023/11/02 07:07:55;;;;;;;2.63;0.87;;;;;;;;;;5036537;28;20367;-67
2023/11/02 07:10:20;;;;;;;2.10;0.60;;;;;;;;;;5029281;28;20029;-67
2023/11/02 07:12:46;;;;;;;1.97;0.60;;;;;;;;;;5031504;28;20032;-67
2023/11/02 07:15:11;;;;;;;2.17;0.57;;;;;;;;;;5041477;28;20017;-67
2023/11/02 07:17:37;;;;;;;3.93;0.70;;;;;;;;;;5036791;28;20492;-68
2023/11/02 07:20:03;;;;;;;2.73;1.03;;;;;;;;;;5033211;28;20041;-65
2023/11/02 07:22:28;;;;;;;1.83;0.47;;;;;;;;;;5031731;28;20097;-67
2023/11/02 07:24:53;;;;;;;2.20;0.53;;;;;;;;;;5035899;28;20021;-68
2023/11/02 07:27:19;;;;;;;1.63;0.53;;;;;;;;;;5037635;28;20023;-66
2023/11/02 07:29:44;;;;;;;4.80;0.80;;;;;;;;;;5034312;28;20033;-68
2023/11/02 07:32:10;;;;;;;1.57;0.47;;;;;;;;;;5034984;28;20033;-65
2023/11/02 07:34:35;;;;;;;3.50;0.80;;;;;;;;;;5035905;28;20025;-65
2023/11/02 07:37:00;;;;;;;1.60;0.70;;;;;;;;;;5035460;28;20028;-65
2023/11/02 07:39:28;;;;;;;2.30;0.50;;;;;;;;;;5036121;28;20390;-66
2023/11/02 07:41:53;;;;;;;3.30;0.60;;;;;;;;;;5031722;28;20473;-68
2023/11/02 07:44:18;;;;;;;1.53;0.30;;;;;;;;;;5038233;28;20039;-65
2023/11/02 07:46:43;;;;;;;1.70;0.57;;;;;;;;;;5039106;28;20049;-64
2023/11/02 07:49:09;;;;;;;3.87;0.57;;;;;;;;;;5043170;28;20086;-67
2023/11/02 07:51:34;;;;;;;2.77;0.67;;;;;;;;;;5035537;28;20086;-64
2023/11/02 07:54:01;;;;;;;1.83;0.70;;;;;;;;;;5037428;28;20028;-64
2023/11/02 07:56:26;;;;;;;3.97;0.60;;;;;;;;;;5034986;28;20021;-64
2023/11/02 07:58:51;;;;;;;0.80;0.30;;;;;;;;;;5036756;28;20370;-66
2023/11/02 08:01:17;;;;;;;3.57;0.70;;;;;;;;;;5040633;28;20404;-65
2023/11/02 08:03:42;;;;;;;3.20;0.90;;;;;;;;;;5040366;28;20589;-65
2023/11/02 08:06:09;;;;;;;3.27;0.60;;;;;;;;;;5035326;28;20347;-64
2023/11/02 08:08:34;;;;;;;2.23;0.50;;;;;;;;;;5035614;28;20449;-65
2023/11/02 08:10:59;;;;;;;2.73;0.70;;;;;;;;;;5034353;28;20025;-65
2023/11/02 08:13:25;;;;;;;1.80;0.60;;;;;;;;;;5038795;28;20013;-65
2023/11/02 08:15:50;;;;;;;3.37;1.20;;;;;;;;;;5040011;28;20017;-61
2023/11/02 08:18:15;;;;;;;1.20;0.50;;;;;;;;;;5032663;28;20317;-63
2023/11/02 08:20:40;;;;;;;2.43;0.57;;;;;;;;;;5036200;28;20064;-62
2023/11/02 08:23:06;;;;;;;1.47;0.50;;;;;;;;;;5040165;28;20060;-63
2023/11/02 08:25:31;;;;;;;0.90;0.43;;;;;;;;;;5036645;28;20025;-62
2023/11/02 08:27:57;;;;;;;1.30;0.60;;;;;;;;;;5035298;28;20108;-63
2023/11/02 08:30:29;;;;;;;1.43;0.50;;;;;;;;;;5034526;28;20052;-63
2023/11/02 08:32:55;;;;;;;1.10;0.50;;;;;;;;;;5044915;28;20020;-66
2023/11/02 08:35:21;;;;;;;5.47;0.50;;;;;;;;;;5037350;28;20014;-63
2023/11/02 08:37:47;;;;;;;1.00;0.50;;;;;;;;;;5035253;28;20028;-62
2023/11/02 08:40:12;;;;;;;1.60;0.37;;;;;;;;;;5034154;28;20021;-63
2023/11/02 08:42:37;;;;;;;1.10;0.50;;;;;;;;;;5036333;28;20371;-63
2023/11/02 08:45:03;;;;;;;1.87;0.70;;;;;;;;;;5035973;28;20029;-64
2023/11/02 08:47:29;;;;;;;1.77;0.53;;;;;;;;;;5020332;28;20052;-64
2023/11/02 08:49:55;;;;;;;0.83;0.33;;;;;;;;;;5036559;28;20025;-64
2023/11/02 08:52:20;;;;;;;1.93;0.67;;;;;;;;;;5033316;28;20022;-64
2023/11/02 08:54:45;;;;;;;1.27;0.50;;;;;;;;;;5036962;28;20462;-65
2023/11/02 08:57:10;;;;;;;1.83;0.53;;;;;;;;;;5031587;28;20473;-66
2023/11/02 08:59:36;;;;;;;4.33;0.60;;;;;;;;;;5036939;28;20029;-67
2023/11/02 09:02:01;;;;;;;1.13;0.40;;;;;;;;;;5037681;28;20047;-68
2023/11/02 09:04:28;;;;;;;1.23;0.50;;;;;;;;;;5035895;28;20521;-69
2023/11/02 09:06:54;;;;;;;1.20;0.50;;;;;;;;;;5033363;28;20040;-66
2023/11/02 09:09:19;;;;;;;1.13;0.53;;;;;;;;;;5039032;28;20026;-65
2023/11/02 09:11:44;;;;;;;1.23;0.43;;;;;;;;;;5035855;28;20462;-66
2023/11/02 09:14:09;;;;;;;2.30;0.50;;;;;;;;;;5038178;28;20395;-66
2023/11/02 09:16:35;;;;;;;0.80;0.30;;;;;;;;;;5034000;28;20377;-66
2023/11/02 09:19:00;;;;;;;3.60;0.50;;;;;;;;;;5034319;28;20534;-65
2023/11/02 09:21:27;;;;;;;3.03;0.57;;;;;;;;;;5042985;28;20090;-66
2023/11/02 09:23:52;;;;;;;1.17;0.50;;;;;;;;;;5037714;28;20024;-67
2023/11/02 09:26:17;;;;;;;0.67;0.27;;;;;;;;;;5032083;28;20487;-66
2023/11/02 09:28:43;;;;;;;1.13;0.30;;;;;;;;;;5037323;28;20067;-66
2023/11/02 09:31:12;;;;;;;2.07;0.70;;;;;;;;;;5036865;28;20120;-65
2023/11/02 09:33:38;;;;;;;0.97;0.50;;;;;;;;;;5025223;28;20462;-66
2023/11/02 09:36:04;;;;;;;4.47;0.70;;;;;;;;;;5035555;28;20025;-65
2023/11/02 09:38:29;;;;;;;1.70;0.50;;;;;;;;;;5033372;28;20446;-66
2023/11/02 09:40:54;;;;;;;0.20;0.20;;;;;;;;;;5035947;28;20028;-65
2023/11/02 09:43:20;;;;;;;1.20;0.40;;;;;;;;;;5035769;28;20099;-65
2023/11/02 09:45:46;;;;;;;2.53;0.60;;;;;;;;;;5033629;28;20032;-64
2023/11/02 09:48:11;;;;;;;1.87;0.50;;;;;;;;;;5036656;28;20028;-65
2023/11/02 09:50:37;;;;;;;0.87;0.43;;;;;;;;;;5034568;28;20111;-65
2023/11/02 09:53:02;;;;;;;1.27;0.60;;;;;;;;;;5034466;28;20048;-66
2023/11/02 09:55:28;;;;;;;1.93;0.50;;;;;;;;;;5038447;28;20158;-65
2023/11/02 09:57:53;;;;;;;1.10;0.50;;;;;;;;;;5038348;28;20032;-67
2023/11/02 10:00:19;;;;;;;2.57;0.60;;;;;;;;;;5036422;28;20025;-66
2023/11/02 10:02:48;;;;;;;1.10;0.50;;;;;;;;;;5037409;28;20055;-67
2023/11/02 10:05:13;;;;;;;1.00;0.50;;;;;;;;;;5035286;28;20413;-67
2023/11/02 10:07:38;;;;;;;2.87;0.50;;;;;;;;;;5036541;28;20013;-66
2023/11/02 10:10:04;;;;;;;2.03;0.60;;;;;;;;;;5033971;28;20390;-67
2023/11/02 10:12:32;;;;;;;0.55;0.30;;;;;;;;;;5038030;28;20108;-67
2023/11/02 10:14:57;;;;;;;5.20;0.50;;;;;;;;;;5034130;28;20334;-66
2023/11/02 10:17:22;;;;;;;3.07;0.40;;;;;;;;;;5036304;28;20025;-67
2023/11/02 10:19:48;;;;;;;2.67;0.50;;;;;;;;;;5038590;28;20036;-67
2023/11/02 10:22:13;;;;;;;2.13;0.50;;;;;;;;;;5038494;28;20290;-67
2023/11/02 10:24:39;;;;;;;1.85;0.43;;;;;;;;;;5034684;28;20087;-66
2023/11/02 10:27:04;;;;;;;1.40;0.57;;;;;;;;;;5032645;28;20033;-67
2023/11/02 10:29:30;;;;;;;2.67;0.55;;;;;;;;;;5032816;28;20039;-67
2023/11/02 10:31:56;;;;;;;3.47;0.50;;;;;;;;;;5033553;28;20033;-67
2023/11/02 10:34:22;;;;;;;0.73;0.38;;;;;;;;;;5031955;28;20462;-67
2023/11/02 10:36:48;;;;;;;0.60;0.30;;;;;;;;;;5033631;28;20028;-66
2023/11/02 10:39:17;;;;;;;0.57;0.30;;;;;;;;;;5035939;28;20370;-66
2023/11/02 10:41:42;;;;;;;0.85;0.40;;;;;;;;;;5034929;28;20466;-66
2023/11/02 10:44:08;;;;;;;0.93;0.40;;;;;;;;;;5035149;28;20087;-67
2023/11/02 10:46:34;;;;;;;2.05;0.70;;;;;;;;;;5032584;28;20426;-67
2023/11/02 10:49:00;;;;;;;1.02;0.35;;;;;;;;;;5022953;28;20025;-66
2023/11/02 10:51:27;;;;;;;0.40;0.30;;;;;;;;;;5033934;28;20430;-66
2023/11/02 10:54:04;;;;;;;0.68;0.35;;;;;;;;;;5034535;28;20029;-67
2023/11/02 10:56:52;;;;;;;8.10;0.50;;;;;;;;;;5031282;28;20468;-67
2023/11/02 10:59:17;;;;;;;0.47;0.22;;;;;;;;;;5039022;28;20643;-67
2023/11/02 11:01:43;;;;;;;3.63;0.43;;;;;;;;;;5035080;28;20029;-65
2023/11/02 11:04:10;;;;;;;0.45;0.30;;;;;;;;;;5034935;28;20448;-67
2023/11/02 11:06:36;;;;;;;1.27;0.40;;;;;;;;;;5033345;28;20029;-66
2023/11/02 11:09:02;;;;;;;0.60;0.30;;;;;;;;;;5038230;28;20045;-67
2023/11/02 11:11:29;;;;;;;0.75;0.30;;;;;;;;;;5032417;28;20263;-67
2023/11/02 11:13:56;;;;;;;0.98;0.40;;;;;;;;;;5033045;28;20029;-68
2023/11/02 11:16:22;;;;;;;1.65;0.43;;;;;;;;;;5035815;28;20124;-65
2023/11/02 11:18:50;;;;;;;3.92;0.30;;;;;;;;;;5037458;28;20037;-65
2023/11/02 11:21:16;;;;;;;1.27;0.40;;;;;;;;;;5039709;28;20276;-64
2023/11/02 11:23:45;;;;;;;0.52;0.22;;;;;;;;;;5035674;28;20025;-64
2023/11/02 11:26:10;;;;;;;0.10;0.10;;;;;;;;;;5037365;28;20029;-65
2023/11/02 11:28:38;;;;;;;1.25;0.30;;;;;;;;;;5042413;28;20041;-63
2023/11/02 11:31:05;;;;;;;1.77;0.50;;;;;;;;;;5037476;28;20410;-63
2023/11/02 11:33:49;;;;;;;1.25;0.38;;;;;;;;;;5041469;28;20511;-63
2023/11/02 11:36:24;;;;;;;2.20;0.43;;;;;;;;;;5035169;28;20121;-63
2023/11/02 11:38:50;;;;;;;3.00;0.35;;;;;;;;;;5046917;28;20025;-64
2023/11/02 11:41:34;;;;;;;1.90;0.70;;;;;;;;;;5036736;28;20092;-64
2023/11/02 11:44:01;;;;;;;0.73;0.20;;;;;;;;;;5035090;28;20029;-64
2023/11/02 11:46:43;;;;;;;2.20;0.38;;;;;;;;;;5033900;28;20081;-63
2023/11/02 11:49:09;;;;;;;;;;;;;;;;;;5041704;28;20037;-64
2023/11/02 11:51:42;;;;;;;2.47;0.50;;;;;;;;;;5037343;28;19939;-64
2023/11/02 11:54:17;;;;;;;5.68;0.68;;;;;;;;;;5037383;28;20109;-64
2023/11/02 11:56:45;;;;;;;0.63;0.32;;;;;;;;;;5030735;28;20033;-64
2023/11/02 11:59:10;;;;;;;1.27;0.30;;;;;;;;;;5038981;28;20025;-65
2023/11/02 12:01:37;;;;;;;1.60;0.40;;;;;;;;;;5039628;28;20485;-64
2023/11/02 12:04:02;;;;;;;0.40;0.20;;;;;;;;;;5037510;28;20056;-65
2023/11/02 12:06:38;;;;;;;1.48;0.40;;;;;;;;;;5034157;28;20172;-65
2023/11/02 12:09:04;;;;;;;6.00;0.60;;;;;;;;;;5035121;28;20083;-63
2023/11/02 12:11:30;;;;;;;1.65;0.30;;;;;;;;;;5038198;28;20033;-64
2023/11/02 12:13:57;;;;;;;2.25;0.40;;;;;;;;;;5038577;28;20444;-65
2023/11/02 12:16:29;;;;;;;1.45;0.40;;;;;;;;;;5034902;28;20028;-62
2023/11/02 12:18:54;;;;;;;2.92;0.50;;;;;;;;;;5037484;28;20512;-65
2023/11/02 12:21:20;;;;;;;0.93;0.50;;;;;;;;;;5033302;28;20269;-63
2023/11/02 12:23:46;;;;;;;1.25;0.45;;;;;;;;;;5039453;28;20020;-66
2023/11/02 12:26:12;;;;;;;1.13;0.30;;;;;;;;;;5037898;28;20025;-66
2023/11/02 12:28:45;;;;;;;1.25;0.63;;;;;;;;;;5035284;28;20045;-67
2023/11/02 12:31:11;;;;;;;2.33;0.70;;;;;;;;;;5035261;28;20044;-67
2023/11/02 12:33:36;;;;;;;3.33;0.60;;;;;;;;;;5034493;28;20275;-66
2023/11/02 12:36:02;;;;;;;2.22;0.40;;;;;;;;;;5038763;28;20025;-66
2023/11/02 12:38:57;;;;;;;0.75;0.35;;;;;;;;;;5039577;28;20108;-66
2023/11/02 12:41:22;;;;;;;0.60;0.30;;;;;;;;;;5030906;28;20064;-67
2023/11/02 12:43:47;;;;;;;0.40;0.22;;;;;;;;;;5032623;28;20070;-66
2023/11/02 12:46:13;;;;;;;0.75;0.30;;;;;;;;;;5039405;28;20036;-67
2023/11/02 12:48:39;;;;;;;4.00;0.50;;;;;;;;;;5041405;28;20316;-66
2023/11/02 12:51:23;;;;;;;4.40;0.40;;;;;;;;;;5032779;28;20029;-68
2023/11/02 12:53:49;;;;;;;2.20;0.40;;;;;;;;;;5032708;28;20430;-66
2023/11/02 12:56:22;;;;;;;1.85;0.30;;;;;;;;;;5039675;28;20462;-66
2023/11/02 12:58:47;;;;;;;3.42;0.60;;;;;;;;;;5038087;28;20029;-66
2023/11/02 13:01:14;;;;;;;3.30;0.60;;;;;;;;;;5037087;28;20541;-66
2023/11/02 13:03:56;;;;;;;1.77;0.45;;;;;;;;;;5031664;28;20049;-66
2023/11/02 13:06:25;;;;;;;2.30;0.55;;;;;;;;;;5039715;28;20061;-66
2023/11/02 13:08:50;;;;;;;1.35;0.40;;;;;;;;;;5034996;28;20025;-65
2023/11/02 13:11:16;;;;;;;2.78;0.40;;;;;;;;;;5032682;28;20036;-66
2023/11/02 13:13:41;;;;;;;3.30;0.50;;;;;;;;;;5035108;28;20032;-67
2023/11/02 13:16:07;;;;;;;1.65;0.45;;;;;;;;;;5034537;28;20185;-65
2023/11/02 13:18:32;;;;;;;1.98;0.70;;;;;;;;;;5037743;28;20340;-66
2023/11/02 13:20:57;;;;;;;2.13;0.43;;;;;;;;;;5039437;28;20025;-66
2023/11/02 13:23:23;;;;;;;6.13;0.55;;;;;;;;;;5035668;28;20112;-66
2023/11/02 13:25:48;;;;;;;1.70;0.50;;;;;;;;;;5035105;28;20653;-65
2023/11/02 13:28:14;;;;;;;6.25;0.80;;;;;;;;;;5038568;28;20359;-66
2023/11/02 13:30:41;;;;;;;3.03;0.60;;;;;;;;;;5038238;28;20083;-66
2023/11/02 13:33:06;;;;;;;1.25;0.30;;;;;;;;;;5035354;28;20025;-65
2023/11/02 13:35:31;;;;;;;5.45;0.60;;;;;;;;;;5038797;28;20375;-64
2023/11/02 13:37:57;;;;;;;3.03;0.50;;;;;;;;;;5039646;28;20028;-65
2023/11/02 13:40:26;;;;;;;1.67;0.55;;;;;;;;;;5032717;28;20424;-63
2023/11/02 13:42:51;;;;;;;3.25;0.60;;;;;;;;;;5037762;28;20032;-63
2023/11/02 13:45:17;;;;;;;4.97;0.75;;;;;;;;;;5031218;28;20506;-63
2023/11/02 13:47:42;;;;;;;2.63;0.60;;;;;;;;;;5035939;28;20025;-65
2023/11/02 13:50:11;;;;;;;2.80;0.60;;;;;;;;;;5036361;28;20489;-63
2023/11/02 13:52:36;;;;;;;5.22;0.57;;;;;;;;;;5029584;28;20091;-64
2023/11/02 13:55:02;;;;;;;1.73;0.50;;;;;;;;;;5038211;28;20029;-63
2023/11/02 13:57:27;;;;;;;2.40;0.63;;;;;;;;;;5035413;28;20029;-64
2023/11/02 13:59:52;;;;;;;1.65;0.73;;;;;;;;;;5037712;28;20016;-66
2023/11/02 14:02:20;;;;;;;2.83;0.60;;;;;;;;;;5027788;28;20065;-63
2023/11/02 14:04:45;;;;;;;4.65;1.13;;;;;;;;;;5032721;28;20053;-65
2023/11/02 14:07:12;;;;;;;1.35;0.40;;;;;;;;;;5033821;28;20294;-63
2023/11/02 14:09:37;;;;;;;2.33;0.50;;;;;;;;;;5036667;28;20059;-63
2023/11/02 14:12:04;;;;;;;2.92;0.50;;;;;;;;;;5034812;28;20318;-63
2023/11/02 14:14:30;;;;;;;1.95;0.60;;;;;;;;;;5035225;28;20047;-64
2023/11/02 14:16:56;;;;;;;1.77;0.50;;;;;;;;;;5036488;28;20017;-63
2023/11/02 14:19:22;;;;;;;3.55;0.50;;;;;;;;;;5036152;28;20585;-62
2023/11/02 14:21:48;;;;;;;1.65;0.50;;;;;;;;;;5032196;28;20064;-62
2023/11/02 14:24:14;;;;;;;4.18;0.50;;;;;;;;;;5031523;28;20029;-64
2023/11/02 14:26:40;;;;;;;2.90;0.63;;;;;;;;;;5034901;28;20032;-63
2023/11/02 14:29:06;;;;;;;2.80;0.63;;;;;;;;;;5036676;28;20555;-63
2023/11/02 14:31:31;;;;;;;1.77;0.60;;;;;;;;;;5035070;28;20025;-63
2023/11/02 14:33:56;;;;;;;2.67;0.70;;;;;;;;;;5030902;28;20047;-63
2023/11/02 14:36:23;;;;;;;3.35;0.80;;;;;;;;;;5034647;28;20449;-63
2023/11/02 14:38:49;;;;;;;2.60;0.50;;;;;;;;;;5035164;28;20017;-64
2023/11/02 14:41:15;;;;;;;4.32;0.80;;;;;;;;;;5037256;28;20032;-64
2023/11/02 14:43:40;;;;;;;1.77;0.55;;;;;;;;;;5033843;28;20116;-63
2023/11/02 14:46:05;;;;;;;7.90;1.05;;;;;;;;;;5036740;28;20475;-65